Time;durP1;ratioP1;P1;durP2;ratioP2;P2;SDS_P1;SDS_P2;PMS_P1;PMS_P2;Temp;Humidity;BMP_temperature;BMP_pressure;BME280_temperature;BME280_humidity;BME280_pressure;Samples;Min_cycle;Max_cycle;Signal;HPM_P1;HPM_P2
2022/06/18 00:00:28;;;;;;;2.40;2.17;;;24.90;75.20;;;;;;4952330;28;20214;-78
2022/06/18 00:02:56;;;;;;;2.50;2.30;;;24.90;75.40;;;;;;4952654;28;20213;-78
2022/06/18 00:05:24;;;;;;;2.50;2.28;;;24.90;75.80;;;;;;4952902;29;20226;-78
2022/06/18 00:07:54;;;;;;;2.47;2.10;;;24.80;76.10;;;;;;4950910;29;20546;-76
2022/06/18 00:10:24;;;;;;;2.80;2.08;;;24.90;76.40;;;;;;4930673;29;20206;-78
2022/06/18 00:15:41;;;;;;;2.63;2.42;;;24.80;77.60;;;;;;4949507;29;20198;-78
2022/06/18 00:18:12;;;;;;;3.80;2.63;;;24.80;77.20;;;;;;4957099;28;20205;-78
2022/06/18 00:20:42;;;;;;;3.28;2.30;;;24.70;77.50;;;;;;4954896;28;20699;-78
2022/06/18 00:23:14;;;;;;;2.35;2.08;;;24.70;77.60;;;;;;4978249;23;20232;-77
2022/06/18 00:25:44;;;;;;;2.92;2.50;;;24.80;77.90;;;;;;4955140;28;20201;-79
2022/06/18 00:28:16;;;;;;;2.33;2.15;;;24.70;78.00;;;;;;4987684;28;20208;-79
2022/06/18 00:30:43;;;;;;;2.58;2.38;;;24.70;78.30;;;;;;4955105;28;20201;-79
2022/06/18 00:33:11;;;;;;;3.08;2.40;;;24.70;78.50;;;;;;4976916;28;20248;-79
2022/06/18 00:35:39;;;;;;;3.53;2.75;;;24.70;78.80;;;;;;4951329;28;20228;-79
2022/06/18 00:38:08;;;;;;;3.05;2.65;;;24.70;78.90;;;;;;4983881;28;20216;-78
2022/06/18 00:40:39;;;;;;;4.10;3.10;;;24.70;79.10;;;;;;4963147;28;20201;-78
2022/06/18 00:43:13;;;;;;;4.28;2.63;;;24.60;79.20;;;;;;4968109;28;20232;-78
2022/06/18 00:45:45;;;;;;;4.25;2.35;;;24.60;80.00;;;;;;4971515;28;20684;-78
2022/06/18 00:48:19;;;;;;;4.05;2.33;;;24.60;80.10;;;;;;4973848;28;20204;-79
2022/06/18 00:50:51;;;;;;;2.60;2.38;;;24.70;79.60;;;;;;4968791;28;20201;-79
2022/06/18 00:53:25;;;;;;;2.80;2.60;;;24.70;79.50;;;;;;4987529;28;20232;-79
2022/06/18 00:55:57;;;;;;;4.63;2.25;;;24.60;79.70;;;;;;4958135;28;20208;-78
2022/06/18 00:58:29;;;;;;;3.28;2.72;;;24.60;80.10;;;;;;4957781;28;20216;-79
2022/06/18 01:00:59;;;;;;;2.53;2.30;;;24.60;79.80;;;;;;4970456;28;20197;-77
2022/06/18 01:03:30;;;;;;;3.28;2.45;;;24.60;79.80;;;;;;4952148;28;20225;-78
2022/06/18 01:06:04;;;;;;;3.25;2.50;;;24.60;80.30;;;;;;4955247;28;20658;-79
2022/06/18 01:08:34;;;;;;;4.57;2.60;;;24.60;80.40;;;;;;4954745;28;20701;-78
2022/06/18 01:11:05;;;;;;;2.72;2.53;;;24.60;80.40;;;;;;4971086;28;20205;-78
2022/06/18 01:13:36;;;;;;;3.42;2.67;;;24.60;80.20;;;;;;4947450;28;20224;-77
2022/06/18 01:16:10;;;;;;;3.38;2.30;;;24.60;80.50;;;;;;4952546;28;20566;-78
2022/06/18 01:18:41;;;;;;;5.70;2.60;;;24.50;80.90;;;;;;4954272;28;20212;-77
2022/06/18 01:21:17;;;;;;;2.50;2.30;;;24.50;81.00;;;;;;4953124;28;20221;-77
2022/06/18 01:23:50;;;;;;;3.42;2.50;;;24.50;81.50;;;;;;4964623;28;20228;-78
2022/06/18 01:26:21;;;;;;;2.78;2.47;;;24.50;81.40;;;;;;4958247;28;20204;-78
2022/06/18 01:28:48;;;;;;;6.32;3.10;;;24.50;81.60;;;;;;4948629;28;20197;-78
2022/06/18 01:31:18;;;;;;;5.65;2.50;;;24.40;81.80;;;;;;4958373;28;20205;-78
2022/06/18 01:33:46;;;;;;;2.92;2.40;;;24.40;82.10;;;;;;4968770;28;20251;-78
2022/06/18 01:36:15;;;;;;;3.28;2.38;;;24.40;82.20;;;;;;4986816;28;20197;-79
2022/06/18 01:38:46;;;;;;;2.83;2.63;;;24.40;82.30;;;;;;4972285;28;20198;-79
2022/06/18 01:44:11;;;;;;;3.55;2.63;;;24.30;82.80;;;;;;4951782;28;20216;-79
2022/06/18 01:46:45;;;;;;;2.95;2.65;;;24.30;82.80;;;;;;4955576;28;20203;-79
2022/06/18 01:49:19;;;;;;;3.78;2.70;;;24.30;82.90;;;;;;4954905;28;20200;-79
2022/06/18 01:51:50;;;;;;;2.90;2.60;;;24.30;82.90;;;;;;4953751;28;20201;-80
2022/06/18 01:54:32;;;;;;;3.33;2.20;;;24.30;83.20;;;;;;4969429;28;20217;-79
2022/06/18 01:57:07;;;;;;;2.58;2.25;;;24.30;83.10;;;;;;4988290;28;20643;-79
2022/06/18 01:59:42;;;;;;;7.85;2.85;;;24.30;83.10;;;;;;4951672;28;20201;-80
2022/06/18 02:02:10;;;;;;;2.90;2.47;;;24.30;83.50;;;;;;4958814;28;20189;-80
2022/06/18 02:04:39;;;;;;;3.45;2.30;;;24.10;84.00;;;;;;4956305;28;20237;-79
2022/06/18 02:07:08;;;;;;;3.28;2.25;;;24.10;84.40;;;;;;4955674;28;20205;-80
2022/06/18 02:09:40;;;;;;;3.00;2.60;;;24.00;84.80;;;;;;4954587;28;20201;-78
2022/06/18 02:12:12;;;;;;;3.45;2.40;;;24.00;85.40;;;;;;4951316;28;20208;-79
2022/06/18 02:14:43;;;;;;;4.03;2.65;;;23.90;86.10;;;;;;4956428;28;20220;-79
2022/06/18 02:17:17;;;;;;;2.88;2.20;;;23.90;86.40;;;;;;4953309;28;20212;-79
2022/06/18 02:19:48;;;;;;;5.40;2.50;;;23.90;86.50;;;;;;4953262;28;20553;-77
2022/06/18 02:22:16;;;;;;;3.83;2.85;;;23.90;87.00;;;;;;4949296;28;20200;-80
2022/06/18 02:24:46;;;;;;;3.90;2.92;;;23.90;87.50;;;;;;4950423;28;20594;-79
2022/06/18 02:27:15;;;;;;;3.05;2.75;;;23.80;87.70;;;;;;4967883;28;20212;-79
2022/06/18 02:29:46;;;;;;;4.20;2.80;;;23.90;88.00;;;;;;4971958;28;20216;-79
2022/06/18 02:32:21;;;;;;;3.25;2.85;;;23.90;87.80;;;;;;4953190;28;20197;-80
2022/06/18 02:34:50;;;;;;;3.67;2.80;;;23.90;88.20;;;;;;4973262;28;20229;-79
2022/06/18 02:37:26;;;;;;;2.80;2.58;;;23.80;88.50;;;;;;4959303;28;20201;-79
2022/06/18 02:40:00;;;;;;;3.45;2.70;;;23.80;89.00;;;;;;4955365;28;20200;-77
2022/06/18 02:42:29;;;;;;;3.35;2.65;;;23.80;89.00;;;;;;4971952;28;20202;-78
2022/06/18 02:44:59;;;;;;;3.38;2.75;;;23.80;89.30;;;;;;4962209;28;20225;-78
2022/06/18 02:47:27;;;;;;;5.35;2.65;;;23.70;90.00;;;;;;4981840;28;20208;-79
2022/06/18 02:49:58;;;;;;;4.72;2.60;;;23.60;90.30;;;;;;4963443;28;20220;-79
2022/06/18 02:52:31;;;;;;;3.05;2.70;;;23.70;90.30;;;;;;4966408;28;20690;-79
2022/06/18 02:55:02;;;;;;;3.45;3.00;;;23.60;90.60;;;;;;4982265;28;20224;-79
2022/06/18 02:57:30;;;;;;;4.28;2.90;;;23.60;90.70;;;;;;4953765;28;20275;-79
2022/06/18 03:00:08;;;;;;;4.20;3.00;;;23.60;90.60;;;;;;4953670;28;20804;-80
2022/06/18 03:02:37;;;;;;;3.10;2.80;;;23.60;90.90;;;;;;4954801;28;20204;-80
2022/06/18 03:05:08;;;;;;;3.20;2.90;;;23.60;90.90;;;;;;4961587;28;20201;-80
2022/06/18 03:07:36;;;;;;;5.10;3.08;;;23.40;91.40;;;;;;4965081;28;20197;-79
2022/06/18 03:12:50;;;;;;;3.08;2.85;;;23.30;91.90;;;;;;4951667;28;20224;-77
2022/06/18 03:15:19;;;;;;;5.53;3.08;;;23.30;92.00;;;;;;4969765;28;20197;-80
2022/06/18 03:17:46;;;;;;;3.25;2.95;;;23.40;92.00;;;;;;4981651;28;20677;-80
2022/06/18 03:20:19;;;;;;;3.00;2.65;;;23.50;91.80;;;;;;4950493;28;20197;-79
2022/06/18 03:22:47;;;;;;;4.25;3.10;;;23.50;91.90;;;;;;4951864;28;20193;-79
2022/06/18 03:25:16;;;;;;;3.42;3.08;;;23.50;91.80;;;;;;4951591;28;20205;-80
2022/06/18 03:27:43;;;;;;;4.55;3.13;;;23.50;91.80;;;;;;4969361;28;20562;-80
2022/06/18 03:30:13;;;;;;;4.25;3.05;;;23.30;92.20;;;;;;4982383;28;20197;-80
2022/06/18 03:32:42;;;;;;;2.80;2.60;;;23.30;92.30;;;;;;4954867;28;20212;-81
2022/06/18 03:35:09;;;;;;;3.80;3.10;;;23.30;92.50;;;;;;4947321;28;20209;-81
2022/06/18 03:37:37;;;;;;;3.85;2.85;;;23.30;92.50;;;;;;4970109;28;20201;-79
2022/06/18 03:40:05;;;;;;;5.80;3.05;;;23.30;92.60;;;;;;4970457;28;20211;-81
2022/06/18 03:42:33;;;;;;;4.13;3.20;;;23.30;92.60;;;;;;4952621;28;20571;-81
2022/06/18 03:45:03;;;;;;;4.22;3.05;;;23.30;92.90;;;;;;4950060;28;20217;-80
2022/06/18 03:47:31;;;;;;;4.57;2.80;;;23.20;93.10;;;;;;4949380;28;20204;-80
2022/06/18 03:49:59;;;;;;;4.75;3.30;;;23.20;93.00;;;;;;4946657;28;20198;-81
2022/06/18 03:52:31;;;;;;;3.15;2.67;;;23.20;93.10;;;;;;4954681;28;20235;-81
2022/06/18 03:54:59;;;;;;;3.95;3.15;;;23.30;93.20;;;;;;4949952;28;20225;-81
2022/06/18 03:57:27;;;;;;;3.33;3.03;;;23.30;93.30;;;;;;4963968;28;20200;-81
2022/06/18 03:59:56;;;;;;;4.60;2.85;;;23.30;93.20;;;;;;4955999;28;20675;-81
2022/06/18 04:02:24;;;;;;;4.25;2.70;;;23.20;93.40;;;;;;4969613;28;20216;-79
2022/06/18 04:04:54;;;;;;;4.82;2.97;;;23.20;93.50;;;;;;4968700;28;20228;-79
2022/06/18 04:07:25;;;;;;;3.95;3.17;;;23.20;93.60;;;;;;4952120;28;20216;-78
2022/06/18 04:10:20;;;;;;;4.10;2.85;;;23.20;93.70;;;;;;4955151;28;20204;-79
2022/06/18 04:12:49;;;;;;;4.00;3.22;;;23.20;93.90;;;;;;4954359;28;20584;-78
2022/06/18 04:15:34;;;;;;;4.60;3.45;;;23.20;94.00;;;;;;4960216;28;20213;-79
2022/06/18 04:18:05;;;;;;;3.03;2.72;;;23.20;93.80;;;;;;4972349;28;20212;-79
2022/06/18 04:20:35;;;;;;;3.22;2.85;;;23.20;93.90;;;;;;4957951;28;20205;-79
2022/06/18 04:23:06;;;;;;;3.42;2.90;;;23.20;94.20;;;;;;4972766;28;20239;-79
2022/06/18 04:25:38;;;;;;;3.00;2.60;;;23.20;94.10;;;;;;4960266;28;20207;-79
2022/06/18 04:28:06;;;;;;;3.97;2.80;;;23.30;94.40;;;;;;4968831;28;20213;-79
2022/06/18 04:30:36;;;;;;;3.42;3.10;;;23.30;94.10;;;;;;4976295;28;20213;-79
2022/06/18 04:33:11;;;;;;;3.33;2.63;;;23.30;94.10;;;;;;4976466;28;20224;-78
2022/06/18 04:35:51;;;;;;;4.43;3.60;;;23.30;94.00;;;;;;4982153;28;20197;-78
2022/06/18 04:38:21;;;;;;;4.40;3.55;;;23.30;94.00;;;;;;4955536;28;20208;-78
2022/06/18 04:41:11;;;;;;;5.47;2.80;;;23.30;94.30;;;;;;4973807;28;20194;-78
2022/06/18 04:43:47;;;;;;;4.75;3.35;;;23.40;94.10;;;;;;4950389;28;20235;-79
2022/06/18 04:46:14;;;;;;;4.47;2.97;;;23.40;94.40;;;;;;4983905;28;20208;-79
2022/06/18 04:48:47;;;;;;;4.80;3.33;;;23.40;94.40;;;;;;4956234;28;20204;-79
2022/06/18 04:51:15;;;;;;;3.95;3.35;;;23.40;94.30;;;;;;4956213;28;20201;-79
2022/06/18 04:53:44;;;;;;;3.95;3.00;;;23.50;94.20;;;;;;4956353;28;20229;-79
2022/06/18 04:56:12;;;;;;;3.53;3.17;;;23.50;94.30;;;;;;4965144;28;20682;-79
2022/06/18 04:58:48;;;;;;;3.70;3.28;;;23.50;94.10;;;;;;4968402;28;20193;-79
2022/06/18 05:01:18;;;;;;;5.35;3.33;;;23.50;94.40;;;;;;4951760;28;20193;-79
2022/06/18 05:03:57;;;;;;;4.43;3.10;;;23.50;94.50;;;;;;4963775;28;20228;-79
2022/06/18 05:06:35;;;;;;;4.82;3.05;;;23.50;94.50;;;;;;4951345;28;20208;-79
2022/06/18 05:09:07;;;;;;;8.85;3.63;;;23.60;94.50;;;;;;4975060;28;20197;-78
2022/06/18 05:11:53;;;;;;;5.53;3.80;;;23.50;94.40;;;;;;4953145;28;20204;-80
2022/06/18 05:14:34;;;;;;;3.80;3.50;;;23.60;94.40;;;;;;4996971;28;20220;-80
2022/06/18 05:17:10;;;;;;;5.13;3.92;;;23.60;94.50;;;;;;4997499;28;20191;-80
2022/06/18 05:19:39;;;;;;;4.38;3.97;;;23.80;94.50;;;;;;5000710;28;20653;-80
2022/06/18 05:22:07;;;;;;;5.32;4.15;;;23.70;94.50;;;;;;5018677;28;20195;-80
2022/06/18 05:24:36;;;;;;;5.55;3.58;;;23.60;94.20;;;;;;4995019;28;20219;-79
2022/06/18 05:27:20;;;;;;;4.43;3.67;;;23.70;94.50;;;;;;4992211;28;20211;-79
2022/06/18 05:29:47;;;;;;;4.63;3.60;;;23.80;94.30;;;;;;4991485;28;20211;-79
2022/06/18 05:32:15;;;;;;;3.85;3.38;;;23.80;94.10;;;;;;5006193;28;20211;-78
2022/06/18 05:34:43;;;;;;;5.47;3.70;;;23.90;94.20;;;;;;5001604;28;20227;-81
2022/06/18 05:37:14;;;;;;;8.85;3.47;;;23.90;94.10;;;;;;4988240;28;20200;-77
2022/06/18 05:39:43;;;;;;;8.68;3.80;;;23.90;94.30;;;;;;4984623;28;20199;-79
2022/06/18 05:42:11;;;;;;;4.18;3.45;;;23.90;94.30;;;;;;4989399;28;20207;-78
2022/06/18 05:44:39;;;;;;;4.03;3.58;;;24.00;94.40;;;;;;5009183;28;20219;-79
2022/06/18 05:47:14;;;;;;;6.05;3.28;;;24.00;94.30;;;;;;4991524;28;20215;-79
2022/06/18 05:49:43;;;;;;;4.47;3.70;;;23.90;94.40;;;;;;4991027;28;20195;-78
2022/06/18 05:52:11;;;;;;;4.05;3.47;;;24.00;94.40;;;;;;4991170;28;20279;-79
2022/06/18 05:54:39;;;;;;;4.40;3.45;;;24.00;94.20;;;;;;4989087;28;20223;-78
2022/06/18 05:57:17;;;;;;;4.95;3.53;;;24.00;94.20;;;;;;4992219;28;20661;-79
2022/06/18 06:00:15;;;;;;;6.25;4.00;;;24.10;94.20;;;;;;5005165;28;20203;-79
2022/06/18 06:02:42;;;;;;;4.65;3.25;;;24.10;94.10;;;;;;5008240;28;20208;-79
2022/06/18 06:05:11;;;;;;;5.32;3.83;;;24.20;94.40;;;;;;5007670;28;20188;-79
2022/06/18 06:07:40;;;;;;;5.15;3.80;;;24.20;94.00;;;;;;5007410;28;20211;-79
2022/06/18 06:13:05;;;;;;;5.75;3.97;;;24.30;93.90;;;;;;4988517;28;20229;-79
2022/06/18 06:15:33;;;;;;;7.55;4.20;;;24.40;93.90;;;;;;4991891;28;20234;-79
2022/06/18 06:18:01;;;;;;;3.90;3.50;;;24.30;94.10;;;;;;4989107;28;20207;-79
2022/06/18 06:20:31;;;;;;;4.90;3.55;;;24.30;93.90;;;;;;4992281;28;20211;-79
2022/06/18 06:22:59;;;;;;;4.32;3.92;;;24.20;93.80;;;;;;4989580;28;20238;-79
2022/06/18 06:25:27;;;;;;;4.55;3.70;;;24.30;94.00;;;;;;5007314;28;20203;-79
2022/06/18 06:27:54;;;;;;;6.50;3.25;;;24.30;93.70;;;;;;4987855;28;20650;-79
2022/06/18 06:30:23;;;;;;;6.07;3.90;;;24.30;93.90;;;;;;4988409;28;20215;-79
2022/06/18 06:32:51;;;;;;;4.22;3.35;;;24.30;94.00;;;;;;5020744;28;20208;-81
2022/06/18 06:35:22;;;;;;;7.25;4.18;;;24.40;94.00;;;;;;5020519;28;20226;-80
2022/06/18 06:37:50;;;;;;;6.18;3.80;;;24.50;94.00;;;;;;5007496;28;20191;-79
2022/06/18 06:40:18;;;;;;;8.35;4.45;;;24.50;93.80;;;;;;5010508;28;20203;-79
2022/06/18 06:42:48;;;;;;;4.35;3.53;;;24.60;93.80;;;;;;4996876;28;20207;-79
2022/06/18 06:45:18;;;;;;;6.13;3.70;;;24.50;93.80;;;;;;4993491;28;20199;-79
2022/06/18 06:47:49;;;;;;;6.40;4.07;;;24.60;94.10;;;;;;5006834;28;20195;-79
2022/06/18 06:50:18;;;;;;;6.45;3.50;;;24.70;93.80;;;;;;4993979;28;20530;-81
2022/06/18 06:52:48;;;;;;;5.68;3.88;;;24.70;93.80;;;;;;5026340;28;20554;-79
2022/06/18 06:58:04;;;;;;;8.52;4.45;;;24.70;93.50;;;;;;4992024;28;20199;-79
2022/06/18 07:00:34;;;;;;;5.50;4.20;;;24.70;93.70;;;;;;4988926;28;20208;-79
2022/06/18 07:03:03;;;;;;;4.85;4.22;;;24.60;93.30;;;;;;4993148;28;20220;-79
2022/06/18 07:05:30;;;;;;;6.50;4.53;;;24.70;93.50;;;;;;5006076;28;20195;-79
2022/06/18 07:07:58;;;;;;;7.93;4.43;;;24.80;93.40;;;;;;4989968;28;20597;-79
2022/06/18 07:10:25;;;;;;;6.28;4.10;;;24.80;93.70;;;;;;5005399;28;20203;-79
2022/06/18 07:12:53;;;;;;;6.88;4.20;;;24.90;93.80;;;;;;4987099;28;20207;-80
2022/06/18 07:15:20;;;;;;;5.88;4.60;;;25.00;93.40;;;;;;4988822;28;20207;-79
2022/06/18 07:17:48;;;;;;;6.70;4.00;;;24.90;93.20;;;;;;4985561;28;20203;-80
2022/06/18 07:20:19;;;;;;;6.55;4.40;;;25.00;93.60;;;;;;4994684;28;20204;-80
2022/06/18 07:22:47;;;;;;;7.97;4.57;;;25.10;93.40;;;;;;5004920;28;20210;-79
2022/06/18 07:25:16;;;;;;;5.72;4.20;;;25.20;93.20;;;;;;4993647;28;20196;-80
2022/06/18 07:27:45;;;;;;;6.50;3.80;;;25.20;93.00;;;;;;4994635;28;20214;-80
2022/06/18 07:30:13;;;;;;;6.95;3.88;;;25.20;92.90;;;;;;4993395;28;20200;-80
2022/06/18 07:32:46;;;;;;;5.00;3.85;;;25.30;92.90;;;;;;4991759;28;20199;-79
2022/06/18 07:35:21;;;;;;;4.47;3.88;;;25.30;92.70;;;;;;4992898;28;20212;-79
2022/06/18 07:37:48;;;;;;;5.97;3.60;;;25.30;93.20;;;;;;5017754;28;20649;-83
2022/06/18 07:40:17;;;;;;;7.38;3.97;;;25.50;93.30;;;;;;4991646;28;20215;-79
2022/06/18 07:42:48;;;;;;;7.50;4.05;;;25.30;92.50;;;;;;4988135;28;20226;-80
2022/06/18 07:45:17;;;;;;;4.22;3.83;;;25.50;92.90;;;;;;4989979;28;20659;-80
2022/06/18 07:47:45;;;;;;;4.78;4.30;;;25.50;92.80;;;;;;5006507;28;20222;-81
2022/06/18 07:50:14;;;;;;;6.25;3.88;;;25.50;92.50;;;;;;5008552;28;20203;-81
2022/06/18 07:52:44;;;;;;;6.28;3.78;;;25.50;92.70;;;;;;5005510;28;20191;-85
2022/06/18 07:55:14;;;;;;;7.15;3.88;;;25.70;93.10;;;;;;4991438;28;20304;-84
2022/06/18 07:57:42;;;;;;;5.28;4.40;;;25.70;92.00;;;;;;4994018;28;20195;-80
2022/06/18 08:00:11;;;;;;;8.65;4.60;;;25.80;92.10;;;;;;4987971;28;20192;-80
2022/06/18 08:02:40;;;;;;;8.23;4.05;;;25.70;91.50;;;;;;5006431;28;20203;-80
2022/06/18 08:05:08;;;;;;;6.68;3.90;;;25.70;91.80;;;;;;4991280;28;20200;-82
2022/06/18 08:07:36;;;;;;;4.28;3.80;;;25.60;91.80;;;;;;5004061;28;20202;-80
2022/06/18 08:10:06;;;;;;;7.97;4.38;;;25.70;91.80;;;;;;4990154;28;20673;-80
2022/06/18 08:12:34;;;;;;;6.63;4.57;;;25.80;91.90;;;;;;4993510;28;20218;-81
2022/06/18 08:15:02;;;;;;;7.93;4.28;;;25.70;91.70;;;;;;4993388;28;20224;-80
2022/06/18 08:17:29;;;;;;;7.00;4.30;;;25.90;91.80;;;;;;4992080;28;20200;-81
2022/06/18 08:19:57;;;;;;;7.40;4.55;;;25.90;91.10;;;;;;4993624;28;20207;-80
2022/06/18 08:22:26;;;;;;;7.22;3.50;;;26.10;91.60;;;;;;4994339;28;20204;-80
2022/06/18 08:24:54;;;;;;;6.35;4.03;;;26.20;91.60;;;;;;4993132;28;20588;-82
2022/06/18 08:27:23;;;;;;;7.57;3.95;;;26.20;91.20;;;;;;5023715;28;20208;-81
2022/06/18 08:29:51;;;;;;;5.55;4.03;;;26.30;91.30;;;;;;5006916;28;20200;-87
2022/06/18 08:32:18;;;;;;;7.00;4.13;;;26.40;91.30;;;;;;5007405;28;20204;-81
2022/06/18 08:34:46;;;;;;;8.25;4.72;;;26.50;90.70;;;;;;5009008;28;20228;-81
2022/06/18 08:37:13;;;;;;;10.70;4.35;;;26.60;90.50;;;;;;5004655;28;20212;-81
2022/06/18 08:39:41;;;;;;;6.90;3.88;;;26.50;89.30;;;;;;4990418;28;20207;-82
2022/06/18 08:42:23;;;;;;;7.78;4.40;;;26.60;89.40;;;;;;4989532;28;20208;-82
2022/06/18 08:45:18;;;;;;;7.85;4.32;;;26.70;89.80;;;;;;5010390;28;20227;-82
2022/06/18 08:48:04;;;;;;;6.82;4.30;;;26.70;89.30;;;;;;5018496;28;20196;-81
